createdAt,value
2022-08-31T00:00:39.281Z,2.60
2022-08-31T00:03:41.657Z,2.90
2022-08-31T00:06:23.655Z,2.90
2022-08-31T00:09:07.599Z,2.70
2022-08-31T00:11:49.597Z,2.60
2022-08-31T00:14:33.437Z,3.20
2022-08-31T00:17:16.869Z,3.00
2022-08-31T00:19:58.704Z,3.00
2022-08-31T00:22:40.806Z,3.00
2022-08-31T00:25:22.761Z,2.90
2022-08-31T00:28:05.606Z,3.00
2022-08-31T00:30:49.465Z,2.80
2022-08-31T00:33:31.565Z,3.40
2022-08-31T00:36:14.484Z,3.10
2022-08-31T00:38:57.257Z,3.00
2022-08-31T00:41:39.869Z,3.10
2022-08-31T00:44:22.222Z,3.10
2022-08-31T00:47:04.892Z,3.30
2022-08-31T00:49:51.440Z,3.20
2022-08-31T00:52:38.166Z,2.90
2022-08-31T00:55:23.024Z,3.00
2022-08-31T00:58:09.277Z,3.10
2022-08-31T01:00:52.203Z,3.30
2022-08-31T01:03:34.228Z,2.90
2022-08-31T01:06:18.280Z,3.90
2022-08-31T01:09:02.959Z,2.70
2022-08-31T01:11:46.221Z,3.00
2022-08-31T01:14:28.161Z,3.20
2022-08-31T01:17:10.376Z,2.90
2022-08-31T01:20:11.880Z,3.30
2022-08-31T01:23:22.137Z,3.10
2022-08-31T01:26:06.490Z,3.60
2022-08-31T01:28:50.947Z,3.60
2022-08-31T01:31:44.330Z,3.10
2022-08-31T01:34:26.615Z,3.30
2022-08-31T01:37:08.818Z,3.60
2022-08-31T01:39:51.738Z,3.70
2022-08-31T01:42:34.352Z,3.20
2022-08-31T01:45:17.626Z,3.30
2022-08-31T01:48:00.194Z,3.20
2022-08-31T01:50:42.345Z,3.30
2022-08-31T01:53:25.619Z,3.50
2022-08-31T01:56:16.265Z,3.50
2022-08-31T01:58:59.770Z,3.30
2022-08-31T02:02:02.952Z,3.10
2022-08-31T02:04:45.052Z,3.40
2022-08-31T02:07:27.305Z,3.30
2022-08-31T02:10:10.172Z,3.70
2022-08-31T02:12:52.173Z,3.90
2022-08-31T02:15:44.408Z,3.60
2022-08-31T02:18:27.533Z,3.40
2022-08-31T02:21:10.555Z,3.70
2022-08-31T02:23:53.680Z,3.50
2022-08-31T02:26:35.781Z,3.70
2022-08-31T02:29:18.802Z,3.40
2022-08-31T02:32:00.903Z,3.80
2022-08-31T02:34:42.901Z,4.20
2022-08-31T02:37:25.000Z,3.70
2022-08-31T02:40:11.943Z,4.10
2022-08-31T02:42:55.858Z,3.80
2022-08-31T02:45:40.007Z,3.10
2022-08-31T02:48:26.355Z,3.50
2022-08-31T02:51:10.864Z,4.10
2022-08-31T02:53:52.964Z,4.10
2022-08-31T02:56:34.907Z,4.00
2022-08-31T02:59:17.882Z,3.80
2022-08-31T03:02:00.209Z,4.00
2022-08-31T03:04:42.390Z,3.30
2022-08-31T03:07:24.287Z,3.80
2022-08-31T03:10:09.238Z,3.80
2022-08-31T03:12:53.094Z,4.30
2022-08-31T03:15:35.127Z,3.80
2022-08-31T03:18:18.217Z,3.80
2022-08-31T03:21:00.425Z,3.30
2022-08-31T03:23:42.418Z,4.10
2022-08-31T03:26:24.724Z,4.00
2022-08-31T03:29:07.473Z,4.10
2022-08-31T03:32:10.025Z,4.20
2022-08-31T03:34:58.237Z,3.80
2022-08-31T03:37:40.163Z,3.70
2022-08-31T03:40:22.504Z,4.30
2022-08-31T03:43:05.386Z,3.70
2022-08-31T03:45:49.650Z,3.90
2022-08-31T03:48:32.453Z,3.70
2022-08-31T03:51:16.604Z,4.40
2022-08-31T03:53:58.601Z,4.50
2022-08-31T03:56:40.972Z,4.50
2022-08-31T03:59:22.904Z,4.30
2022-08-31T04:02:40.673Z,4.10
2022-08-31T04:05:44.276Z,4.30
2022-08-31T04:08:29.109Z,3.80
2022-08-31T04:11:37.195Z,4.70
2022-08-31T04:14:47.021Z,4.10
2022-08-31T04:18:01.325Z,4.40
2022-08-31T04:21:02.984Z,4.40
2022-08-31T04:23:44.880Z,4.00
2022-08-31T04:26:33.739Z,4.30
2022-08-31T04:29:15.941Z,4.20
2022-08-31T04:31:59.373Z,3.70
2022-08-31T04:34:41.297Z,4.00
2022-08-31T04:37:23.477Z,3.80
2022-08-31T04:40:07.440Z,4.50
2022-08-31T04:42:49.722Z,4.00
2022-08-31T04:45:33.384Z,4.40
2022-08-31T04:48:15.459Z,4.10
2022-08-31T04:51:05.751Z,3.90
2022-08-31T04:53:48.616Z,5.00
2022-08-31T04:56:33.640Z,5.20
2022-08-31T04:59:18.132Z,5.00
2022-08-31T05:02:16.809Z,4.60
2022-08-31T05:05:14.448Z,4.40
2022-08-31T05:07:58.086Z,5.10
2022-08-31T05:10:41.518Z,5.00
2022-08-31T05:13:24.469Z,4.90
2022-08-31T05:16:09.049Z,4.60
2022-08-31T05:18:51.918Z,4.30
2022-08-31T05:21:37.496Z,4.60
2022-08-31T05:24:22.901Z,4.20
2022-08-31T05:27:05.113Z,3.60
2022-08-31T05:29:48.255Z,3.80
2022-08-31T05:32:50.782Z,3.90
2022-08-31T05:35:35.389Z,5.10
2022-08-31T05:38:17.447Z,3.50
2022-08-31T05:40:59.338Z,4.10
2022-08-31T05:43:41.130Z,3.40
2022-08-31T05:46:23.497Z,3.80
2022-08-31T05:49:07.992Z,3.90
2022-08-31T05:51:50.609Z,4.20
2022-08-31T05:54:37.009Z,3.60
2022-08-31T05:57:21.457Z,3.70
2022-08-31T06:00:09.623Z,3.80
2022-08-31T06:02:54.777Z,4.00
2022-08-31T06:05:36.832Z,4.00
2022-08-31T06:08:20.049Z,3.90
2022-08-31T06:11:14.498Z,3.60
2022-08-31T06:13:59.419Z,3.60
2022-08-31T06:16:44.178Z,3.60
2022-08-31T06:19:27.655Z,3.40
2022-08-31T06:22:10.165Z,3.40
2022-08-31T06:24:52.777Z,3.50
2022-08-31T06:27:38.993Z,2.90
2022-08-31T06:30:23.400Z,2.80
2022-08-31T06:33:09.320Z,3.20
2022-08-31T06:36:09.135Z,3.10
2022-08-31T06:39:07.414Z,3.30
2022-08-31T06:42:00.730Z,3.30
2022-08-31T06:44:49.844Z,2.70
2022-08-31T06:47:33.889Z,3.00
2022-08-31T06:50:16.137Z,2.80
2022-08-31T06:52:58.092Z,2.80
2022-08-31T06:55:53.523Z,3.50
2022-08-31T06:58:54.650Z,3.50
2022-08-31T07:01:54.399Z,5.80
2022-08-31T07:04:46.601Z,3.70
2022-08-31T07:07:28.549Z,3.60
2022-08-31T07:10:11.009Z,2.50
2022-08-31T07:12:52.903Z,2.80
2022-08-31T07:15:34.798Z,2.50
2022-08-31T07:18:17.718Z,2.30
2022-08-31T07:21:17.345Z,2.40
2022-08-31T07:24:02.399Z,2.50
2022-08-31T07:26:50.132Z,2.40
2022-08-31T07:29:41.022Z,5.20
2022-08-31T07:32:26.316Z,3.40
2022-08-31T07:35:09.439Z,2.10
2022-08-31T07:38:29.944Z,2.30
2022-08-31T07:41:31.188Z,2.10
2022-08-31T07:44:15.132Z,2.30
2022-08-31T07:46:57.744Z,2.50
2022-08-31T07:49:44.760Z,2.20
2022-08-31T07:52:51.848Z,1.70
2022-08-31T07:55:56.987Z,2.50
2022-08-31T07:59:07.772Z,1.80
2022-08-31T08:01:56.194Z,2.10
2022-08-31T08:04:44.455Z,1.90
2022-08-31T08:08:00.378Z,1.90
2022-08-31T08:11:02.313Z,1.70
2022-08-31T08:13:56.087Z,1.70
2022-08-31T08:16:58.667Z,1.80
2022-08-31T08:19:50.496Z,1.70
2022-08-31T08:22:51.556Z,1.80
2022-08-31T08:25:47.567Z,1.70
2022-08-31T08:28:42.066Z,1.50
2022-08-31T08:31:29.419Z,1.80
2022-08-31T08:34:11.791Z,1.70
2022-08-31T08:36:53.787Z,1.50
2022-08-31T08:39:35.834Z,1.70
2022-08-31T08:42:27.922Z,1.80
2022-08-31T08:45:11.317Z,1.90
2022-08-31T08:47:55.340Z,1.80
2022-08-31T08:50:40.675Z,1.70
2022-08-31T08:53:26.096Z,1.90
2022-08-31T08:56:32.839Z,2.10
2022-08-31T08:59:19.827Z,1.80
2022-08-31T09:02:07.100Z,1.60
2022-08-31T09:05:14.562Z,2.40
2022-08-31T09:08:23.756Z,1.80
2022-08-31T09:11:18.605Z,2.00
2022-08-31T09:14:26.813Z,1.60
2022-08-31T09:17:37.343Z,2.00
2022-08-31T09:20:19.998Z,6.60
2022-08-31T09:23:07.315Z,2.30
2022-08-31T09:25:52.694Z,2.10
2022-08-31T09:28:57.319Z,1.60
2022-08-31T09:31:42.412Z,1.60
2022-08-31T09:34:41.715Z,2.80
2022-08-31T09:37:27.020Z,2.00
2022-08-31T09:40:23.384Z,1.40
2022-08-31T09:43:16.465Z,1.60
2022-08-31T09:46:07.763Z,2.30
2022-08-31T09:48:59.050Z,1.30
2022-08-31T09:51:40.889Z,1.50
2022-08-31T09:54:47.161Z,1.60
2022-08-31T09:57:56.918Z,1.80
2022-08-31T10:00:42.834Z,1.70
2022-08-31T10:03:31.903Z,1.40
2022-08-31T10:06:38.022Z,1.30
2022-08-31T10:09:29.937Z,1.30
2022-08-31T10:12:21.187Z,1.50
2022-08-31T10:15:24.966Z,1.50
2022-08-31T10:18:41.106Z,1.20
2022-08-31T10:21:56.372Z,1.40
2022-08-31T10:24:56.912Z,1.40
2022-08-31T10:30:32.152Z,1.60
2022-08-31T10:33:19.868Z,1.80
2022-08-31T10:36:05.195Z,1.30
2022-08-31T10:38:51.353Z,1.60
2022-08-31T10:41:38.963Z,1.50
2022-08-31T10:44:39.513Z,1.20
2022-08-31T10:47:33.737Z,2.00
2022-08-31T10:50:46.722Z,1.30
2022-08-31T10:53:54.423Z,1.30
2022-08-31T10:56:54.239Z,1.20
2022-08-31T11:00:01.633Z,1.50
2022-08-31T11:03:11.038Z,1.50
2022-08-31T11:06:01.132Z,1.60
2022-08-31T11:08:58.314Z,2.00
2022-08-31T11:11:45.695Z,1.30
2022-08-31T11:14:50.068Z,1.30
2022-08-31T11:17:57.764Z,1.40
2022-08-31T11:21:04.438Z,1.30
2022-08-31T11:23:55.858Z,1.40
2022-08-31T11:26:51.085Z,1.40
2022-08-31T11:29:46.420Z,1.80
2022-08-31T11:32:49.797Z,1.60
2022-08-31T11:36:07.308Z,1.40
2022-08-31T11:39:33.897Z,1.50
2022-08-31T11:42:27.647Z,1.30
2022-08-31T11:45:31.590Z,1.50
2022-08-31T11:48:55.959Z,1.20
2022-08-31T11:51:41.926Z,1.40
2022-08-31T11:54:29.373Z,1.50
2022-08-31T11:57:16.285Z,1.40
2022-08-31T12:00:00.576Z,1.50
2022-08-31T12:02:52.348Z,1.60
2022-08-31T12:05:55.217Z,1.40
2022-08-31T12:08:52.626Z,1.50
2022-08-31T12:11:53.438Z,1.40
2022-08-31T12:15:19.697Z,1.40
2022-08-31T12:18:21.152Z,1.40
2022-08-31T12:21:47.816Z,1.30
2022-08-31T12:24:59.893Z,1.80
2022-08-31T12:28:08.311Z,2.10
2022-08-31T12:30:55.169Z,1.60
2022-08-31T12:33:46.961Z,1.50
2022-08-31T12:36:34.265Z,1.70
2022-08-31T12:39:21.625Z,2.30
2022-08-31T12:42:05.919Z,2.30
2022-08-31T12:44:52.593Z,2.20
2022-08-31T12:47:46.385Z,1.80
2022-08-31T12:51:07.926Z,1.70
2022-08-31T12:54:27.299Z,1.90
2022-08-31T12:57:35.424Z,2.00
2022-08-31T13:00:27.034Z,2.20
2022-08-31T13:03:26.132Z,1.80
2022-08-31T13:06:14.253Z,1.30
2022-08-31T13:08:59.550Z,1.30
2022-08-31T13:11:44.801Z,1.30
2022-08-31T13:14:30.713Z,1.20
2022-08-31T13:17:18.259Z,1.20
2022-08-31T13:20:01.676Z,1.40
2022-08-31T13:22:57.600Z,1.30
2022-08-31T13:25:39.750Z,1.40
2022-08-31T13:28:26.298Z,1.20
2022-08-31T13:31:11.976Z,2.00
2022-08-31T13:34:01.873Z,1.40
2022-08-31T13:36:53.797Z,1.80
2022-08-31T13:39:36.825Z,1.70
2022-08-31T13:42:32.299Z,1.30
2022-08-31T13:45:26.785Z,2.00
2022-08-31T13:48:20.197Z,2.30
2022-08-31T13:51:13.765Z,1.60
2022-08-31T13:53:55.569Z,1.80
2022-08-31T13:57:02.133Z,2.10
2022-08-31T13:59:44.131Z,2.00
2022-08-31T14:02:36.692Z,1.90
2022-08-31T14:05:36.462Z,2.00
2022-08-31T14:08:25.469Z,2.30
2022-08-31T14:11:16.102Z,1.80
2022-08-31T14:14:16.074Z,4.10
2022-08-31T14:17:08.580Z,4.30
2022-08-31T14:19:50.720Z,4.10
2022-08-31T14:22:35.520Z,2.90
2022-08-31T14:25:22.324Z,1.90
2022-08-31T14:28:05.570Z,3.00
2022-08-31T14:30:47.732Z,2.40
2022-08-31T14:33:29.700Z,2.70
2022-08-31T14:36:14.997Z,2.20
2022-08-31T14:38:59.148Z,2.30
2022-08-31T14:41:41.045Z,1.80
2022-08-31T14:44:30.208Z,1.80
2022-08-31T14:47:12.720Z,2.80
2022-08-31T14:49:57.012Z,2.50
2022-08-31T14:52:52.919Z,2.30
2022-08-31T14:55:34.891Z,3.00
2022-08-31T14:58:17.861Z,4.20
2022-08-31T15:01:02.880Z,3.50
2022-08-31T15:03:45.390Z,3.40
2022-08-31T15:06:27.742Z,1.90
2022-08-31T15:09:10.309Z,2.90
2022-08-31T15:11:52.511Z,1.70
2022-08-31T15:14:38.196Z,2.60
2022-08-31T15:17:24.915Z,2.10
2022-08-31T15:20:10.430Z,2.60
2022-08-31T15:22:52.499Z,2.40
2022-08-31T15:25:35.099Z,2.30
2022-08-31T15:28:18.748Z,1.90
2022-08-31T15:31:02.200Z,1.90
2022-08-31T15:33:49.472Z,2.70
2022-08-31T15:36:32.964Z,2.10
2022-08-31T15:39:15.241Z,1.80
2022-08-31T15:41:57.780Z,2.10
2022-08-31T15:44:41.318Z,2.40
2022-08-31T15:47:51.007Z,3.30
2022-08-31T15:50:36.194Z,2.40
2022-08-31T15:53:25.980Z,3.80
2022-08-31T15:56:09.711Z,3.50
2022-08-31T15:58:58.775Z,2.90
2022-08-31T16:01:40.749Z,1.70
2022-08-31T16:04:25.276Z,3.30
2022-08-31T16:07:08.250Z,3.60
2022-08-31T16:09:50.147Z,6.90
2022-08-31T16:12:32.860Z,2.90
2022-08-31T16:15:15.883Z,2.70
2022-08-31T16:17:57.867Z,3.80
2022-08-31T16:20:39.731Z,2.40
2022-08-31T16:23:21.672Z,3.80
2022-08-31T16:26:05.448Z,3.10
2022-08-31T16:28:47.409Z,2.90
2022-08-31T16:31:30.824Z,3.30
2022-08-31T16:34:13.965Z,2.70
2022-08-31T16:36:57.295Z,3.00
2022-08-31T16:39:44.659Z,2.30
2022-08-31T16:42:26.717Z,1.90
2022-08-31T16:45:10.774Z,1.50
2022-08-31T16:48:12.896Z,1.80
2022-08-31T16:50:54.831Z,1.90
2022-08-31T16:53:36.727Z,1.80
2022-08-31T16:56:20.704Z,1.90
2022-08-31T16:59:02.613Z,5.20
2022-08-31T17:01:46.136Z,3.90
2022-08-31T17:04:50.922Z,2.90
2022-08-31T17:07:30.986Z,2.80
2022-08-31T17:10:12.984Z,1.90
2022-08-31T17:12:55.802Z,2.30
2022-08-31T17:15:37.744Z,3.80
2022-08-31T17:18:25.122Z,3.50
2022-08-31T17:21:07.271Z,6.00
2022-08-31T17:23:51.409Z,5.00
2022-08-31T17:26:34.905Z,4.40
2022-08-31T17:29:18.587Z,9.10
2022-08-31T17:32:04.534Z,6.00
2022-08-31T17:34:51.355Z,6.50
2022-08-31T17:37:36.621Z,4.70
2022-08-31T17:40:18.988Z,3.50
2022-08-31T17:43:01.893Z,4.00
2022-08-31T17:45:43.688Z,7.10
2022-08-31T17:48:25.741Z,5.40
2022-08-31T17:51:17.287Z,5.30
2022-08-31T17:54:12.609Z,5.00
2022-08-31T17:56:56.212Z,4.20
2022-08-31T17:59:40.767Z,11.80
2022-08-31T18:02:27.757Z,23.50
2022-08-31T18:05:11.984Z,8.90
2022-08-31T18:07:54.339Z,5.60
2022-08-31T18:10:36.540Z,3.60
2022-08-31T18:13:24.395Z,3.80
2022-08-31T18:16:09.491Z,4.50
2022-08-31T18:18:51.607Z,5.70
2022-08-31T18:21:33.646Z,5.20
2022-08-31T18:24:15.789Z,5.10
2022-08-31T18:26:59.383Z,5.50
2022-08-31T18:29:42.818Z,5.10
2022-08-31T18:32:31.573Z,4.80
2022-08-31T18:35:17.813Z,4.30
2022-08-31T18:38:04.786Z,5.00
2022-08-31T18:41:10.743Z,4.60
2022-08-31T18:44:12.300Z,4.40
2022-08-31T18:46:58.261Z,3.50
2022-08-31T18:49:42.113Z,3.70
2022-08-31T18:52:26.312Z,4.00
2022-08-31T18:55:09.120Z,2.80
2022-08-31T18:57:51.507Z,2.90
2022-08-31T19:03:46.121Z,4.20
2022-08-31T19:06:30.937Z,4.40
2022-08-31T19:09:14.213Z,4.00
2022-08-31T19:12:02.562Z,3.90
2022-08-31T19:14:44.982Z,3.70
2022-08-31T19:17:27.272Z,4.40
2022-08-31T19:20:10.759Z,4.60
2022-08-31T19:22:53.932Z,3.80
2022-08-31T19:25:42.721Z,3.00
2022-08-31T19:28:24.892Z,4.20
2022-08-31T19:31:10.028Z,5.70
2022-08-31T19:33:57.350Z,4.00
2022-08-31T19:36:42.252Z,3.80
2022-08-31T19:39:28.049Z,3.10
2022-08-31T19:42:11.630Z,3.20
2022-08-31T19:45:22.696Z,3.10
2022-08-31T19:48:01.273Z,3.30
2022-08-31T19:50:43.629Z,4.10
2022-08-31T19:53:26.072Z,4.00
2022-08-31T19:56:10.785Z,3.20
2022-08-31T19:58:56.739Z,3.10
2022-08-31T20:01:41.852Z,4.50
2022-08-31T20:04:28.062Z,7.00
2022-08-31T20:07:11.076Z,5.50
2022-08-31T20:09:53.846Z,5.40
2022-08-31T20:12:36.253Z,4.40
2022-08-31T20:15:18.883Z,4.10
2022-08-31T20:18:01.173Z,4.60
2022-08-31T20:20:45.997Z,4.50
2022-08-31T20:23:30.595Z,5.80
2022-08-31T20:26:12.592Z,5.20
2022-08-31T20:28:58.153Z,5.70
2022-08-31T20:31:43.291Z,5.50
2022-08-31T20:34:28.174Z,5.30
2022-08-31T20:37:10.928Z,5.00
2022-08-31T20:39:53.754Z,5.00
2022-08-31T20:42:37.577Z,4.60
2022-08-31T20:45:19.687Z,4.40
2022-08-31T20:48:20.527Z,4.10
2022-08-31T20:51:16.499Z,4.20
2022-08-31T20:53:58.348Z,4.10
2022-08-31T20:56:40.550Z,3.40
2022-08-31T20:59:24.644Z,3.50
2022-08-31T21:02:07.789Z,3.50
2022-08-31T21:04:51.104Z,3.20
2022-08-31T21:07:36.428Z,3.10
2022-08-31T21:10:36.674Z,3.50
2022-08-31T21:13:19.329Z,4.00
2022-08-31T21:16:03.885Z,4.20
2022-08-31T21:18:49.484Z,3.70
2022-08-31T21:21:31.405Z,3.10
2022-08-31T21:24:18.112Z,3.60
2022-08-31T21:27:01.796Z,3.70
2022-08-31T21:29:50.710Z,3.90
2022-08-31T21:32:33.015Z,3.50
2022-08-31T21:35:15.591Z,3.30
2022-08-31T21:37:59.084Z,3.40
2022-08-31T21:40:50.501Z,2.90
2022-08-31T21:43:32.621Z,3.50
2022-08-31T21:46:17.989Z,3.60
2022-08-31T21:49:01.695Z,2.80
2022-08-31T21:51:46.151Z,3.60
2022-08-31T21:54:29.277Z,3.90
2022-08-31T21:57:13.016Z,3.80
2022-08-31T21:59:54.910Z,4.30
2022-08-31T22:02:36.831Z,4.30
2022-08-31T22:05:18.701Z,4.20
2022-08-31T22:08:01.827Z,3.40
2022-08-31T22:10:44.848Z,4.00
2022-08-31T22:13:26.847Z,3.10
2022-08-31T22:16:19.349Z,3.60
2022-08-31T22:19:02.795Z,2.70
2022-08-31T22:21:49.455Z,3.00
2022-08-31T22:24:33.981Z,3.20
2022-08-31T22:27:15.819Z,3.60
2022-08-31T22:29:57.678Z,3.20
2022-08-31T22:32:39.675Z,3.20
2022-08-31T22:35:22.187Z,3.20
2022-08-31T22:38:04.080Z,3.40
2022-08-31T22:40:50.324Z,2.90
2022-08-31T22:43:32.480Z,3.30
2022-08-31T22:46:19.282Z,3.20
2022-08-31T22:49:02.210Z,3.40
2022-08-31T22:51:48.606Z,2.90
2022-08-31T22:54:30.964Z,2.80
2022-08-31T22:57:12.919Z,3.20
2022-08-31T22:59:54.965Z,3.30
2022-08-31T23:02:45.419Z,3.20
2022-08-31T23:08:11.260Z,3.20
2022-08-31T23:10:53.195Z,3.00
2022-08-31T23:13:55.732Z,3.00
2022-08-31T23:16:44.689Z,3.00
2022-08-31T23:19:35.492Z,2.90
2022-08-31T23:22:17.798Z,3.00
2022-08-31T23:25:05.223Z,2.80
2022-08-31T23:27:49.205Z,3.10
2022-08-31T23:30:31.166Z,2.90
2022-08-31T23:33:13.061Z,3.00
2022-08-31T23:35:56.390Z,2.80
2022-08-31T23:38:39.925Z,2.80
2022-08-31T23:41:30.216Z,3.10
2022-08-31T23:44:13.547Z,3.00
2022-08-31T23:46:55.443Z,2.80
2022-08-31T23:49:37.645Z,3.10
2022-08-31T23:52:22.715Z,2.90
2022-08-31T23:55:07.185Z,3.00
2022-08-31T23:57:50.203Z,3.20
